sensor_id;sensor_type;location;lat;lon;timestamp;P1;durP1;ratioP1;P2;durP2;ratioP2
73959;SDS011;62316;48.920;2.342;2023-05-19T04:02:44;30.50;;;22.50;;
73959;SDS011;62316;48.920;2.342;2023-05-19T04:05:16;27.25;;;22.75;;
73959;SDS011;62316;48.920;2.342;2023-05-19T04:07:42;24.25;;;22.00;;
73959;SDS011;62316;48.920;2.342;2023-05-19T04:10:07;22.25;;;18.00;;
73959;SDS011;62316;48.920;2.342;2023-05-19T04:12:33;24.50;;;22.25;;
73959;SDS011;62316;48.920;2.342;2023-05-19T04:14:58;27.75;;;23.00;;
73959;SDS011;62316;48.920;2.342;2023-05-19T04:17:24;23.75;;;21.25;;
73959;SDS011;62316;48.920;2.342;2023-05-19T04:19:53;23.00;;;20.25;;
73959;SDS011;62316;48.920;2.342;2023-05-19T04:22:19;27.50;;;22.25;;
73959;SDS011;62316;48.920;2.342;2023-05-19T04:24:44;31.75;;;27.25;;
73959;SDS011;62316;48.920;2.342;2023-05-19T04:27:10;28.50;;;26.00;;
73959;SDS011;62316;48.920;2.342;2023-05-19T04:29:37;25.00;;;22.25;;
73959;SDS011;62316;48.920;2.342;2023-05-19T04:32:03;34.00;;;21.50;;
73959;SDS011;62316;48.920;2.342;2023-05-19T04:34:32;26.75;;;24.00;;
73959;SDS011;62316;48.920;2.342;2023-05-19T04:37:04;27.00;;;24.00;;
73959;SDS011;62316;48.920;2.342;2023-05-19T04:39:34;26.25;;;23.50;;
73959;SDS011;62316;48.920;2.342;2023-05-19T04:42:02;31.25;;;21.00;;
73959;SDS011;62316;48.920;2.342;2023-05-19T04:44:28;26.75;;;20.25;;
73959;SDS011;62316;48.920;2.342;2023-05-19T04:46:54;28.50;;;24.25;;
73959;SDS011;62316;48.920;2.342;2023-05-19T04:49:22;24.25;;;23.25;;
73959;SDS011;62316;48.920;2.342;2023-05-19T04:51:48;25.50;;;23.25;;
73959;SDS011;62316;48.920;2.342;2023-05-19T04:54:20;28.75;;;25.75;;
73959;SDS011;62316;48.920;2.342;2023-05-19T04:56:51;25.75;;;21.25;;
73959;SDS011;62316;48.920;2.342;2023-05-19T04:59:17;26.50;;;24.25;;
73959;SDS011;62316;48.920;2.342;2023-05-19T05:01:42;28.75;;;25.75;;
73959;SDS011;62316;48.920;2.342;2023-05-19T05:04:08;25.00;;;23.00;;
73959;SDS011;62316;48.920;2.342;2023-05-19T05:06:33;26.50;;;22.50;;
73959;SDS011;62316;48.920;2.342;2023-05-19T05:08:58;30.50;;;27.00;;
73959;SDS011;62316;48.920;2.342;2023-05-19T05:11:24;25.00;;;22.25;;
73959;SDS011;62316;48.920;2.342;2023-05-19T05:13:50;26.25;;;24.00;;
73959;SDS011;62316;48.920;2.342;2023-05-19T05:16:16;22.25;;;22.25;;
73959;SDS011;62316;48.920;2.342;2023-05-19T05:18:41;25.50;;;20.00;;
73959;SDS011;62316;48.920;2.342;2023-05-19T05:21:07;24.75;;;22.50;;
73959;SDS011;62316;48.920;2.342;2023-05-19T05:23:33;25.00;;;24.50;;
73959;SDS011;62316;48.920;2.342;2023-05-19T05:25:59;23.50;;;20.75;;
73959;SDS011;62316;48.920;2.342;2023-05-19T05:28:48;24.50;;;23.00;;
73959;SDS011;62316;48.920;2.342;2023-05-19T05:31:14;22.50;;;20.50;;
73959;SDS011;62316;48.920;2.342;2023-05-19T05:33:41;26.00;;;19.75;;
73959;SDS011;62316;48.920;2.342;2023-05-19T05:36:07;25.00;;;24.75;;
73959;SDS011;62316;48.920;2.342;2023-05-19T05:38:33;27.50;;;26.25;;
73959;SDS011;62316;48.920;2.342;2023-05-19T05:40:59;22.50;;;21.00;;
73959;SDS011;62316;48.920;2.342;2023-05-19T05:43:26;24.50;;;21.75;;
73959;SDS011;62316;48.920;2.342;2023-05-19T05:45:52;19.50;;;18.75;;
73959;SDS011;62316;48.920;2.342;2023-05-19T05:48:17;24.00;;;23.00;;
73959;SDS011;62316;48.920;2.342;2023-05-19T05:50:43;25.75;;;23.25;;
73959;SDS011;62316;48.920;2.342;2023-05-19T05:53:09;22.25;;;21.00;;
73959;SDS011;62316;48.920;2.342;2023-05-19T05:55:39;17.50;;;17.25;;
73959;SDS011;62316;48.920;2.342;2023-05-19T05:58:05;25.00;;;23.00;;
73959;SDS011;62316;48.920;2.342;2023-05-19T06:00:35;33.75;;;27.25;;
73959;SDS011;62316;48.920;2.342;2023-05-19T06:03:01;28.50;;;24.75;;
73959;SDS011;62316;48.920;2.342;2023-05-19T06:05:28;28.25;;;22.25;;
73959;SDS011;62316;48.920;2.342;2023-05-19T06:07:53;24.25;;;21.50;;
73959;SDS011;62316;48.920;2.342;2023-05-19T06:10:18;25.00;;;20.75;;
73959;SDS011;62316;48.920;2.342;2023-05-19T06:12:44;29.00;;;24.25;;
73959;SDS011;62316;48.920;2.342;2023-05-19T06:22:00;22.75;;;20.00;;
73959;SDS011;62316;48.920;2.342;2023-05-19T06:24:26;22.50;;;19.75;;
73959;SDS011;62316;48.920;2.342;2023-05-19T06:26:51;28.00;;;22.75;;
73959;SDS011;62316;48.920;2.342;2023-05-19T06:29:16;19.75;;;19.75;;
73959;SDS011;62316;48.920;2.342;2023-05-19T06:31:42;21.25;;;19.25;;
73959;SDS011;62316;48.920;2.342;2023-05-19T06:34:07;22.25;;;16.75;;
73959;SDS011;62316;48.920;2.342;2023-05-19T06:36:36;25.25;;;23.25;;
73959;SDS011;62316;48.920;2.342;2023-05-19T06:39:01;25.50;;;23.50;;
73959;SDS011;62316;48.920;2.342;2023-05-19T06:41:27;18.75;;;17.50;;
73959;SDS011;62316;48.920;2.342;2023-05-19T06:43:52;22.75;;;19.00;;
73959;SDS011;62316;48.920;2.342;2023-05-19T06:46:17;23.00;;;20.25;;
73959;SDS011;62316;48.920;2.342;2023-05-19T06:48:43;33.25;;;25.50;;
73959;SDS011;62316;48.920;2.342;2023-05-19T06:51:08;24.75;;;21.00;;
73959;SDS011;62316;48.920;2.342;2023-05-19T06:53:34;26.25;;;21.25;;
73959;SDS011;62316;48.920;2.342;2023-05-19T06:56:00;19.50;;;19.25;;
73959;SDS011;62316;48.920;2.342;2023-05-19T06:58:25;22.75;;;17.00;;
73959;SDS011;62316;48.920;2.342;2023-05-19T07:00:51;22.50;;;20.00;;
73959;SDS011;62316;48.920;2.342;2023-05-19T07:03:17;24.75;;;21.75;;
73959;SDS011;62316;48.920;2.342;2023-05-19T07:05:42;25.50;;;20.75;;
73959;SDS011;62316;48.920;2.342;2023-05-19T07:08:08;30.25;;;23.50;;
73959;SDS011;62316;48.920;2.342;2023-05-19T07:10:33;30.00;;;24.00;;
73959;SDS011;62316;48.920;2.342;2023-05-19T07:12:58;20.00;;;19.50;;
73959;SDS011;62316;48.920;2.342;2023-05-19T07:15:24;20.50;;;20.50;;
73959;SDS011;62316;48.920;2.342;2023-05-19T07:17:49;24.25;;;22.00;;
73959;SDS011;62316;48.920;2.342;2023-05-19T07:20:15;14.50;;;13.50;;
73959;SDS011;62316;48.920;2.342;2023-05-19T07:22:40;31.75;;;20.25;;
73959;SDS011;62316;48.920;2.342;2023-05-19T07:25:06;27.75;;;22.50;;
73959;SDS011;62316;48.920;2.342;2023-05-19T07:27:32;25.50;;;20.00;;
73959;SDS011;62316;48.920;2.342;2023-05-19T07:29:57;23.25;;;21.25;;
73959;SDS011;62316;48.920;2.342;2023-05-19T07:32:23;20.75;;;15.25;;
73959;SDS011;62316;48.920;2.342;2023-05-19T07:34:48;23.00;;;22.00;;
73959;SDS011;62316;48.920;2.342;2023-05-19T07:37:14;24.25;;;21.00;;
73959;SDS011;62316;48.920;2.342;2023-05-19T07:39:40;28.25;;;19.00;;
73959;SDS011;62316;48.920;2.342;2023-05-19T07:42:05;27.00;;;22.75;;
73959;SDS011;62316;48.920;2.342;2023-05-19T07:44:30;22.50;;;20.25;;
73959;SDS011;62316;48.920;2.342;2023-05-19T07:46:56;29.25;;;26.25;;
73959;SDS011;62316;48.920;2.342;2023-05-19T07:49:24;24.75;;;22.50;;
73959;SDS011;62316;48.920;2.342;2023-05-19T07:51:54;23.00;;;18.25;;
73959;SDS011;62316;48.920;2.342;2023-05-19T07:55:11;22.50;;;22.50;;
73959;SDS011;62316;48.920;2.342;2023-05-19T07:57:37;25.00;;;19.25;;
73959;SDS011;62316;48.920;2.342;2023-05-19T08:00:03;29.75;;;21.75;;
73959;SDS011;62316;48.920;2.342;2023-05-19T08:02:31;31.50;;;23.75;;
73959;SDS011;62316;48.920;2.342;2023-05-19T08:04:57;24.00;;;20.75;;
73959;SDS011;62316;48.920;2.342;2023-05-19T08:07:23;21.50;;;20.00;;
73959;SDS011;62316;48.920;2.342;2023-05-19T08:09:55;24.33;;;20.00;;
73959;SDS011;62316;48.920;2.342;2023-05-19T08:12:20;19.00;;;17.00;;
73959;SDS011;62316;48.920;2.342;2023-05-19T08:14:45;24.75;;;21.75;;
73959;SDS011;62316;48.920;2.342;2023-05-19T08:17:11;23.00;;;21.25;;
73959;SDS011;62316;48.920;2.342;2023-05-19T08:19:36;19.00;;;18.50;;
73959;SDS011;62316;48.920;2.342;2023-05-19T08:22:02;26.25;;;22.00;;
73959;SDS011;62316;48.920;2.342;2023-05-19T08:24:28;21.50;;;19.75;;
73959;SDS011;62316;48.920;2.342;2023-05-19T08:26:57;22.75;;;21.50;;
73959;SDS011;62316;48.920;2.342;2023-05-19T08:29:23;24.00;;;20.25;;
73959;SDS011;62316;48.920;2.342;2023-05-19T08:31:48;23.50;;;19.00;;
73959;SDS011;62316;48.920;2.342;2023-05-19T08:34:13;26.00;;;21.00;;
73959;SDS011;62316;48.920;2.342;2023-05-19T08:36:39;20.25;;;19.25;;
73959;SDS011;62316;48.920;2.342;2023-05-19T08:39:05;23.00;;;19.25;;
73959;SDS011;62316;48.920;2.342;2023-05-19T08:41:31;21.67;;;18.00;;
73959;SDS011;62316;48.920;2.342;2023-05-19T08:43:56;32.25;;;22.75;;
73959;SDS011;62316;48.920;2.342;2023-05-19T08:46:22;24.00;;;19.00;;
73959;SDS011;62316;48.920;2.342;2023-05-19T08:48:49;24.00;;;20.50;;
73959;SDS011;62316;48.920;2.342;2023-05-19T08:51:19;20.75;;;17.50;;
73959;SDS011;62316;48.920;2.342;2023-05-19T08:53:52;17.75;;;16.75;;
73959;SDS011;62316;48.920;2.342;2023-05-19T08:56:22;27.25;;;19.00;;
73959;SDS011;62316;48.920;2.342;2023-05-19T08:58:49;19.50;;;17.75;;
73959;SDS011;62316;48.920;2.342;2023-05-19T09:01:15;25.67;;;19.33;;
73959;SDS011;62316;48.920;2.342;2023-05-19T09:03:41;21.33;;;18.00;;
73959;SDS011;62316;48.920;2.342;2023-05-19T09:06:07;19.67;;;17.00;;
73959;SDS011;62316;48.920;2.342;2023-05-19T09:08:33;15.00;;;13.33;;
73959;SDS011;62316;48.920;2.342;2023-05-19T09:10:59;20.75;;;18.75;;
73959;SDS011;62316;48.920;2.342;2023-05-19T09:13:25;20.00;;;19.00;;
73959;SDS011;62316;48.920;2.342;2023-05-19T09:15:51;23.00;;;19.50;;
73959;SDS011;62316;48.920;2.342;2023-05-19T09:18:17;18.50;;;17.00;;
73959;SDS011;62316;48.920;2.342;2023-05-19T09:20:43;17.25;;;15.75;;
73959;SDS011;62316;48.920;2.342;2023-05-19T09:23:12;18.75;;;16.75;;
73959;SDS011;62316;48.920;2.342;2023-05-19T09:25:45;20.75;;;19.00;;
73959;SDS011;62316;48.920;2.342;2023-05-19T09:28:13;15.75;;;15.25;;
73959;SDS011;62316;48.920;2.342;2023-05-19T09:30:38;22.25;;;20.00;;
73959;SDS011;62316;48.920;2.342;2023-05-19T09:33:03;10.50;;;8.00;;
73959;SDS011;62316;48.920;2.342;2023-05-19T09:35:33;19.75;;;18.50;;
73959;SDS011;62316;48.920;2.342;2023-05-19T09:37:59;18.25;;;16.75;;
73959;SDS011;62316;48.920;2.342;2023-05-19T09:40:58;19.00;;;16.25;;
73959;SDS011;62316;48.920;2.342;2023-05-19T09:43:17;15.50;;;15.50;;
73959;SDS011;62316;48.920;2.342;2023-05-19T09:46:04;17.25;;;15.50;;
73959;SDS011;62316;48.920;2.342;2023-05-19T09:48:31;18.50;;;16.00;;
73959;SDS011;62316;48.920;2.342;2023-05-19T09:50:57;12.75;;;12.50;;
73959;SDS011;62316;48.920;2.342;2023-05-19T09:53:30;18.25;;;15.25;;
73959;SDS011;62316;48.920;2.342;2023-05-19T09:55:59;15.00;;;11.00;;
73959;SDS011;62316;48.920;2.342;2023-05-19T09:58:29;14.00;;;12.67;;
73959;SDS011;62316;48.920;2.342;2023-05-19T10:00:59;12.67;;;12.00;;
73959;SDS011;62316;48.920;2.342;2023-05-19T10:03:25;14.00;;;13.00;;
73959;SDS011;62316;48.920;2.342;2023-05-19T10:05:51;17.33;;;15.67;;
73959;SDS011;62316;48.920;2.342;2023-05-19T10:08:17;14.00;;;12.75;;
73959;SDS011;62316;48.920;2.342;2023-05-19T10:14:00;15.33;;;10.67;;
73959;SDS011;62316;48.920;2.342;2023-05-19T10:16:25;11.33;;;9.33;;
73959;SDS011;62316;48.920;2.342;2023-05-19T10:18:52;11.00;;;11.00;;
73959;SDS011;62316;48.920;2.342;2023-05-19T10:21:19;5.33;;;5.33;;
73959;SDS011;62316;48.920;2.342;2023-05-19T10:23:44;11.33;;;10.00;;
73959;SDS011;62316;48.920;2.342;2023-05-19T10:26:10;15.67;;;14.67;;
73959;SDS011;62316;48.920;2.342;2023-05-19T10:28:37;20.00;;;15.33;;
73959;SDS011;62316;48.920;2.342;2023-05-19T10:31:05;13.67;;;13.00;;
73959;SDS011;62316;48.920;2.342;2023-05-19T10:39:04;11.67;;;10.67;;
73959;SDS011;62316;48.920;2.342;2023-05-19T10:41:41;15.00;;;15.00;;
73959;SDS011;62316;48.920;2.342;2023-05-19T10:44:15;14.00;;;14.00;;
73959;SDS011;62316;48.920;2.342;2023-05-19T10:46:47;20.00;;;15.00;;
73959;SDS011;62316;48.920;2.342;2023-05-19T10:49:19;13.33;;;13.00;;
73959;SDS011;62316;48.920;2.342;2023-05-19T10:51:46;15.33;;;12.00;;
73959;SDS011;62316;48.920;2.342;2023-05-19T10:54:11;13.00;;;12.67;;
73959;SDS011;62316;48.920;2.342;2023-05-19T10:56:41;12.00;;;11.67;;
73959;SDS011;62316;48.920;2.342;2023-05-19T10:59:28;12.00;;;11.00;;
73959;SDS011;62316;48.920;2.342;2023-05-19T11:01:54;14.00;;;14.00;;
73959;SDS011;62316;48.920;2.342;2023-05-19T11:04:20;13.00;;;13.00;;
73959;SDS011;62316;48.920;2.342;2023-05-19T11:07:03;17.33;;;15.33;;
73959;SDS011;62316;48.920;2.342;2023-05-19T11:09:28;14.00;;;12.00;;
73959;SDS011;62316;48.920;2.342;2023-05-19T11:12:00;11.00;;;11.00;;
73959;SDS011;62316;48.920;2.342;2023-05-19T11:14:29;14.00;;;13.00;;
73959;SDS011;62316;48.920;2.342;2023-05-19T11:16:56;12.00;;;11.33;;
73959;SDS011;62316;48.920;2.342;2023-05-19T11:19:27;15.75;;;14.75;;
73959;SDS011;62316;48.920;2.342;2023-05-19T11:21:54;18.00;;;14.00;;
73959;SDS011;62316;48.920;2.342;2023-05-19T11:24:37;14.67;;;13.00;;
73959;SDS011;62316;48.920;2.342;2023-05-19T11:27:43;16.00;;;12.67;;
73959;SDS011;62316;48.920;2.342;2023-05-19T11:32:32;14.67;;;11.00;;
73959;SDS011;62316;48.920;2.342;2023-05-19T11:34:58;12.67;;;12.00;;
73959;SDS011;62316;48.920;2.342;2023-05-19T11:37:25;12.67;;;12.00;;
73959;SDS011;62316;48.920;2.342;2023-05-19T11:39:51;12.00;;;11.33;;
73959;SDS011;62316;48.920;2.342;2023-05-19T11:42:17;13.67;;;12.00;;
73959;SDS011;62316;48.920;2.342;2023-05-19T11:44:43;11.33;;;10.00;;
73959;SDS011;62316;48.920;2.342;2023-05-19T11:47:12;15.67;;;15.00;;
73959;SDS011;62316;48.920;2.342;2023-05-19T11:49:38;16.00;;;11.67;;
73959;SDS011;62316;48.920;2.342;2023-05-19T11:52:07;14.67;;;13.00;;
73959;SDS011;62316;48.920;2.342;2023-05-19T11:54:35;12.67;;;10.67;;
73959;SDS011;62316;48.920;2.342;2023-05-19T11:57:01;14.67;;;13.00;;
73959;SDS011;62316;48.920;2.342;2023-05-19T11:59:34;13.00;;;13.00;;
73959;SDS011;62316;48.920;2.342;2023-05-19T12:02:02;12.00;;;12.00;;
73959;SDS011;62316;48.920;2.342;2023-05-19T12:04:40;16.00;;;12.33;;
73959;SDS011;62316;48.920;2.342;2023-05-19T12:07:05;16.00;;;12.00;;
73959;SDS011;62316;48.920;2.342;2023-05-19T12:09:31;10.67;;;9.00;;
73959;SDS011;62316;48.920;2.342;2023-05-19T12:11:56;14.67;;;13.00;;
73959;SDS011;62316;48.920;2.342;2023-05-19T12:14:22;12.33;;;10.00;;
73959;SDS011;62316;48.920;2.342;2023-05-19T12:16:49;9.33;;;8.33;;
73959;SDS011;62316;48.920;2.342;2023-05-19T12:19:15;13.33;;;13.00;;
73959;SDS011;62316;48.920;2.342;2023-05-19T12:21:40;12.00;;;9.33;;
73959;SDS011;62316;48.920;2.342;2023-05-19T12:24:06;12.00;;;10.67;;
73959;SDS011;62316;48.920;2.342;2023-05-19T12:26:32;11.00;;;9.67;;
73959;SDS011;62316;48.920;2.342;2023-05-19T12:28:58;13.33;;;12.33;;
73959;SDS011;62316;48.920;2.342;2023-05-19T12:31:24;11.33;;;10.00;;
73959;SDS011;62316;48.920;2.342;2023-05-19T12:33:49;11.67;;;11.00;;
73959;SDS011;62316;48.920;2.342;2023-05-19T12:36:16;9.00;;;8.00;;
73959;SDS011;62316;48.920;2.342;2023-05-19T12:38:42;10.00;;;8.67;;
73959;SDS011;62316;48.920;2.342;2023-05-19T12:47:19;11.33;;;11.33;;
73959;SDS011;62316;48.920;2.342;2023-05-19T12:52:40;9.67;;;9.67;;
73959;SDS011;62316;48.920;2.342;2023-05-19T12:55:17;6.67;;;6.67;;
73959;SDS011;62316;48.920;2.342;2023-05-19T13:00:57;11.33;;;10.67;;
73959;SDS011;62316;48.920;2.342;2023-05-19T13:03:28;14.33;;;12.00;;
73959;SDS011;62316;48.920;2.342;2023-05-19T13:06:21;11.33;;;9.67;;
73959;SDS011;62316;48.920;2.342;2023-05-19T13:09:05;10.00;;;10.00;;
73959;SDS011;62316;48.920;2.342;2023-05-19T13:11:31;15.67;;;13.33;;
73959;SDS011;62316;48.920;2.342;2023-05-19T13:13:56;18.33;;;15.33;;
73959;SDS011;62316;48.920;2.342;2023-05-19T13:16:22;13.67;;;12.00;;
73959;SDS011;62316;48.920;2.342;2023-05-19T13:18:47;10.33;;;10.00;;
73959;SDS011;62316;48.920;2.342;2023-05-19T13:21:12;12.33;;;12.33;;
73959;SDS011;62316;48.920;2.342;2023-05-19T13:23:38;8.00;;;6.67;;
73959;SDS011;62316;48.920;2.342;2023-05-19T13:26:04;13.00;;;11.00;;
73959;SDS011;62316;48.920;2.342;2023-05-19T13:28:30;8.67;;;8.67;;
73959;SDS011;62316;48.920;2.342;2023-05-19T13:31:19;9.33;;;9.33;;
73959;SDS011;62316;48.920;2.342;2023-05-19T13:33:44;9.67;;;6.67;;
73959;SDS011;62316;48.920;2.342;2023-05-19T13:36:09;9.33;;;8.33;;
73959;SDS011;62316;48.920;2.342;2023-05-19T13:38:35;11.33;;;9.67;;
73959;SDS011;62316;48.920;2.342;2023-05-19T13:44:03;12.00;;;11.67;;
73959;SDS011;62316;48.920;2.342;2023-05-19T13:46:29;12.67;;;9.67;;
73959;SDS011;62316;48.920;2.342;2023-05-19T13:48:54;10.33;;;9.00;;
73959;SDS011;62316;48.920;2.342;2023-05-19T13:51:26;13.00;;;9.00;;
73959;SDS011;62316;48.920;2.342;2023-05-19T13:53:52;13.00;;;9.67;;
73959;SDS011;62316;48.920;2.342;2023-05-19T13:56:44;10.00;;;10.00;;
73959;SDS011;62316;48.920;2.342;2023-05-19T13:59:12;8.67;;;8.00;;
73959;SDS011;62316;48.920;2.342;2023-05-19T14:01:38;11.00;;;8.00;;
73959;SDS011;62316;48.920;2.342;2023-05-19T14:04:04;8.67;;;7.33;;
73959;SDS011;62316;48.920;2.342;2023-05-19T14:06:30;13.00;;;8.00;;
73959;SDS011;62316;48.920;2.342;2023-05-19T14:09:18;10.00;;;10.00;;
73959;SDS011;62316;48.920;2.342;2023-05-19T14:11:43;9.33;;;8.33;;
73959;SDS011;62316;48.920;2.342;2023-05-19T14:14:08;9.00;;;9.00;;
73959;SDS011;62316;48.920;2.342;2023-05-19T14:16:37;11.33;;;11.00;;
73959;SDS011;62316;48.920;2.342;2023-05-19T14:19:04;9.67;;;9.00;;
73959;SDS011;62316;48.920;2.342;2023-05-19T14:21:38;9.00;;;8.00;;
73959;SDS011;62316;48.920;2.342;2023-05-19T14:24:49;11.33;;;10.33;;
73959;SDS011;62316;48.920;2.342;2023-05-19T14:26:54;11.67;;;10.33;;
73959;SDS011;62316;48.920;2.342;2023-05-19T14:29:20;8.67;;;8.67;;
73959;SDS011;62316;48.920;2.342;2023-05-19T14:31:53;13.00;;;12.00;;
73959;SDS011;62316;48.920;2.342;2023-05-19T14:34:29;12.00;;;10.33;;
73959;SDS011;62316;48.920;2.342;2023-05-19T14:36:55;9.33;;;9.33;;
73959;SDS011;62316;48.920;2.342;2023-05-19T14:39:20;7.00;;;7.00;;
73959;SDS011;62316;48.920;2.342;2023-05-19T14:41:45;9.00;;;6.33;;
73959;SDS011;62316;48.920;2.342;2023-05-19T14:44:13;14.00;;;12.67;;
73959;SDS011;62316;48.920;2.342;2023-05-19T14:46:38;7.00;;;6.67;;
73959;SDS011;62316;48.920;2.342;2023-05-19T14:49:03;3.33;;;2.67;;
73959;SDS011;62316;48.920;2.342;2023-05-19T14:54:16;11.00;;;10.33;;
73959;SDS011;62316;48.920;2.342;2023-05-19T14:56:41;11.00;;;10.00;;
73959;SDS011;62316;48.920;2.342;2023-05-19T14:59:06;9.67;;;8.00;;
73959;SDS011;62316;48.920;2.342;2023-05-19T15:01:32;13.33;;;9.67;;
73959;SDS011;62316;48.920;2.342;2023-05-19T15:03:57;9.67;;;9.67;;
73959;SDS011;62316;48.920;2.342;2023-05-19T15:06:22;11.67;;;9.00;;
73959;SDS011;62316;48.920;2.342;2023-05-19T15:08:48;10.67;;;9.67;;
73959;SDS011;62316;48.920;2.342;2023-05-19T15:11:13;8.33;;;8.33;;
73959;SDS011;62316;48.920;2.342;2023-05-19T15:13:38;9.67;;;8.67;;
73959;SDS011;62316;48.920;2.342;2023-05-19T15:16:04;10.33;;;10.33;;
73959;SDS011;62316;48.920;2.342;2023-05-19T15:18:33;16.33;;;10.67;;
73959;SDS011;62316;48.920;2.342;2023-05-19T15:20:59;13.67;;;11.67;;
73959;SDS011;62316;48.920;2.342;2023-05-19T15:23:24;9.67;;;8.67;;
73959;SDS011;62316;48.920;2.342;2023-05-19T15:25:49;11.33;;;10.67;;
73959;SDS011;62316;48.920;2.342;2023-05-19T15:28:15;5.33;;;5.33;;
73959;SDS011;62316;48.920;2.342;2023-05-19T15:30:40;10.33;;;10.00;;
73959;SDS011;62316;48.920;2.342;2023-05-19T15:33:07;11.00;;;10.67;;
73959;SDS011;62316;48.920;2.342;2023-05-19T15:35:39;11.67;;;11.67;;
73959;SDS011;62316;48.920;2.342;2023-05-19T15:38:04;8.67;;;8.67;;
73959;SDS011;62316;48.920;2.342;2023-05-19T15:40:33;10.00;;;8.67;;
73959;SDS011;62316;48.920;2.342;2023-05-19T15:42:59;10.00;;;10.00;;
73959;SDS011;62316;48.920;2.342;2023-05-19T15:45:25;9.00;;;8.33;;
73959;SDS011;62316;48.920;2.342;2023-05-19T15:47:51;11.33;;;9.67;;
73959;SDS011;62316;48.920;2.342;2023-05-19T15:50:16;10.33;;;9.00;;
73959;SDS011;62316;48.920;2.342;2023-05-19T15:52:42;11.00;;;11.00;;
73959;SDS011;62316;48.920;2.342;2023-05-19T15:55:07;12.00;;;10.33;;
73959;SDS011;62316;48.920;2.342;2023-05-19T15:57:36;6.33;;;6.00;;
73959;SDS011;62316;48.920;2.342;2023-05-19T16:00:01;9.33;;;6.33;;
73959;SDS011;62316;48.920;2.342;2023-05-19T16:02:27;10.67;;;9.67;;
73959;SDS011;62316;48.920;2.342;2023-05-19T16:04:53;9.33;;;9.33;;
73959;SDS011;62316;48.920;2.342;2023-05-19T16:07:18;9.33;;;8.33;;
73959;SDS011;62316;48.920;2.342;2023-05-19T16:09:43;8.67;;;7.67;;
73959;SDS011;62316;48.920;2.342;2023-05-19T16:12:09;7.00;;;6.33;;
73959;SDS011;62316;48.920;2.342;2023-05-19T16:14:34;11.00;;;10.67;;
73959;SDS011;62316;48.920;2.342;2023-05-19T16:17:02;8.00;;;5.00;;
73959;SDS011;62316;48.920;2.342;2023-05-19T16:19:27;13.67;;;11.33;;
73959;SDS011;62316;48.920;2.342;2023-05-19T16:21:53;9.33;;;9.33;;
73959;SDS011;62316;48.920;2.342;2023-05-19T16:24:18;7.00;;;5.00;;
73959;SDS011;62316;48.920;2.342;2023-05-19T16:26:44;9.00;;;9.00;;
73959;SDS011;62316;48.920;2.342;2023-05-19T16:29:10;8.00;;;7.00;;
73959;SDS011;62316;48.920;2.342;2023-05-19T16:31:41;6.00;;;6.00;;
73959;SDS011;62316;48.920;2.342;2023-05-19T16:34:06;12.33;;;8.00;;
73959;SDS011;62316;48.920;2.342;2023-05-19T16:36:32;7.67;;;7.67;;
73959;SDS011;62316;48.920;2.342;2023-05-19T16:38:57;7.33;;;7.33;;
73959;SDS011;62316;48.920;2.342;2023-05-19T16:41:23;8.33;;;7.33;;
73959;SDS011;62316;48.920;2.342;2023-05-19T16:43:48;9.67;;;7.67;;
73959;SDS011;62316;48.920;2.342;2023-05-19T16:46:14;10.00;;;8.33;;
73959;SDS011;62316;48.920;2.342;2023-05-19T16:48:39;9.00;;;9.00;;
73959;SDS011;62316;48.920;2.342;2023-05-19T16:51:20;7.67;;;7.67;;
73959;SDS011;62316;48.920;2.342;2023-05-19T16:56:36;7.00;;;7.00;;
73959;SDS011;62316;48.920;2.342;2023-05-19T16:59:02;7.33;;;6.33;;
73959;SDS011;62316;48.920;2.342;2023-05-19T17:01:27;5.00;;;5.00;;
73959;SDS011;62316;48.920;2.342;2023-05-19T17:07:12;5.33;;;5.33;;
73959;SDS011;62316;48.920;2.342;2023-05-19T17:10:02;7.67;;;7.00;;
73959;SDS011;62316;48.920;2.342;2023-05-19T17:12:28;8.00;;;5.00;;
73959;SDS011;62316;48.920;2.342;2023-05-19T17:14:53;9.33;;;8.33;;
73959;SDS011;62316;48.920;2.342;2023-05-19T17:17:19;6.67;;;6.67;;
73959;SDS011;62316;48.920;2.342;2023-05-19T17:22:31;8.33;;;6.00;;
73959;SDS011;62316;48.920;2.342;2023-05-19T17:24:57;5.33;;;5.33;;
73959;SDS011;62316;48.920;2.342;2023-05-19T17:27:22;11.33;;;8.67;;
73959;SDS011;62316;48.920;2.342;2023-05-19T17:32:38;14.00;;;10.33;;
73959;SDS011;62316;48.920;2.342;2023-05-19T17:35:13;11.33;;;9.33;;
73959;SDS011;62316;48.920;2.342;2023-05-19T17:37:39;8.00;;;8.00;;
73959;SDS011;62316;48.920;2.342;2023-05-19T17:40:17;9.67;;;7.67;;
73959;SDS011;62316;48.920;2.342;2023-05-19T17:42:52;9.00;;;8.33;;
73959;SDS011;62316;48.920;2.342;2023-05-19T17:45:35;9.67;;;8.33;;
73959;SDS011;62316;48.920;2.342;2023-05-19T17:48:00;10.33;;;10.33;;
73959;SDS011;62316;48.920;2.342;2023-05-19T17:50:25;12.33;;;12.33;;
73959;SDS011;62316;48.920;2.342;2023-05-19T17:55:48;8.33;;;8.33;;
73959;SDS011;62316;48.920;2.342;2023-05-19T17:58:17;8.33;;;8.33;;
73959;SDS011;62316;48.920;2.342;2023-05-19T18:00:42;10.33;;;7.67;;
73959;SDS011;62316;48.920;2.342;2023-05-19T18:03:08;8.67;;;8.67;;
73959;SDS011;62316;48.920;2.342;2023-05-19T18:05:34;12.33;;;9.67;;
73959;SDS011;62316;48.920;2.342;2023-05-19T18:08:00;6.33;;;6.33;;
73959;SDS011;62316;48.920;2.342;2023-05-19T18:10:30;10.33;;;10.00;;
73959;SDS011;62316;48.920;2.342;2023-05-19T18:13:00;9.67;;;9.67;;
73959;SDS011;62316;48.920;2.342;2023-05-19T18:15:25;10.00;;;8.33;;
73959;SDS011;62316;48.920;2.342;2023-05-19T18:17:51;11.75;;;10.00;;
73959;SDS011;62316;48.920;2.342;2023-05-19T18:20:16;13.00;;;12.00;;
73959;SDS011;62316;48.920;2.342;2023-05-19T18:22:42;10.25;;;10.25;;
73959;SDS011;62316;48.920;2.342;2023-05-19T18:25:07;10.33;;;10.33;;
73959;SDS011;62316;48.920;2.342;2023-05-19T18:27:33;11.00;;;9.75;;
73959;SDS011;62316;48.920;2.342;2023-05-19T18:29:58;12.00;;;8.67;;
73959;SDS011;62316;48.920;2.342;2023-05-19T18:32:24;13.67;;;13.00;;
73959;SDS011;62316;48.920;2.342;2023-05-19T18:34:49;13.00;;;11.00;;
73959;SDS011;62316;48.920;2.342;2023-05-19T18:37:15;15.00;;;15.00;;
73959;SDS011;62316;48.920;2.342;2023-05-19T18:39:41;11.00;;;11.00;;
73959;SDS011;62316;48.920;2.342;2023-05-19T18:42:07;4.67;;;4.67;;
73959;SDS011;62316;48.920;2.342;2023-05-19T18:44:32;5.00;;;4.75;;
73959;SDS011;62316;48.920;2.342;2023-05-19T18:46:58;12.00;;;11.67;;
73959;SDS011;62316;48.920;2.342;2023-05-19T18:49:23;8.00;;;8.00;;
73959;SDS011;62316;48.920;2.342;2023-05-19T18:51:56;12.67;;;10.00;;
73959;SDS011;62316;48.920;2.342;2023-05-19T18:54:21;10.33;;;10.00;;
73959;SDS011;62316;48.920;2.342;2023-05-19T18:56:47;9.00;;;9.00;;
73959;SDS011;62316;48.920;2.342;2023-05-19T18:59:12;14.00;;;10.33;;
73959;SDS011;62316;48.920;2.342;2023-05-19T19:01:37;14.25;;;11.25;;
73959;SDS011;62316;48.920;2.342;2023-05-19T19:04:03;14.00;;;13.50;;
73959;SDS011;62316;48.920;2.342;2023-05-19T19:06:28;13.00;;;12.00;;
73959;SDS011;62316;48.920;2.342;2023-05-19T19:08:54;14.25;;;12.25;;
73959;SDS011;62316;48.920;2.342;2023-05-19T19:11:19;8.33;;;8.33;;
73959;SDS011;62316;48.920;2.342;2023-05-19T19:13:45;13.00;;;11.00;;
73959;SDS011;62316;48.920;2.342;2023-05-19T19:16:14;13.67;;;11.67;;
73959;SDS011;62316;48.920;2.342;2023-05-19T19:18:40;12.00;;;11.00;;
73959;SDS011;62316;48.920;2.342;2023-05-19T19:21:05;10.75;;;9.75;;
73959;SDS011;62316;48.920;2.342;2023-05-19T19:23:31;12.00;;;11.50;;